sensor_id;sensor_type;location;lat;lon;timestamp;P1;durP1;ratioP1;P2;durP2;ratioP2
64738;SDS011;51175;51.186;0.276;2023-07-22T00:00:24;8.82;;;5.50;;
64738;SDS011;51175;51.186;0.276;2023-07-22T00:00:54;9.15;;;5.93;;
64738;SDS011;51175;51.186;0.276;2023-07-22T00:01:25;8.82;;;5.90;;
64738;SDS011;51175;51.186;0.276;2023-07-22T00:01:55;10.05;;;7.10;;
64738;SDS011;51175;51.186;0.276;2023-07-22T00:02:25;9.48;;;6.47;;
64738;SDS011;51175;51.186;0.276;2023-07-22T00:02:56;8.02;;;5.75;;
64738;SDS011;51175;51.186;0.276;2023-07-22T00:03:26;8.95;;;6.32;;
64738;SDS011;51175;51.186;0.276;2023-07-22T00:03:56;10.88;;;6.20;;
64738;SDS011;51175;51.186;0.276;2023-07-22T00:04:27;9.48;;;5.97;;
64738;SDS011;51175;51.186;0.276;2023-07-22T00:04:57;9.15;;;6.70;;
64738;SDS011;51175;51.186;0.276;2023-07-22T00:05:27;10.77;;;6.93;;
64738;SDS011;51175;51.186;0.276;2023-07-22T00:06:05;9.60;;;6.50;;
64738;SDS011;51175;51.186;0.276;2023-07-22T00:06:36;7.50;;;5.32;;
64738;SDS011;51175;51.186;0.276;2023-07-22T00:07:06;9.70;;;6.35;;
64738;SDS011;51175;51.186;0.276;2023-07-22T00:07:36;10.50;;;7.03;;
64738;SDS011;51175;51.186;0.276;2023-07-22T00:08:07;10.82;;;6.72;;
64738;SDS011;51175;51.186;0.276;2023-07-22T00:08:37;9.88;;;6.30;;
64738;SDS011;51175;51.186;0.276;2023-07-22T00:09:08;8.70;;;5.80;;
64738;SDS011;51175;51.186;0.276;2023-07-22T00:09:40;9.77;;;6.43;;
64738;SDS011;51175;51.186;0.276;2023-07-22T00:10:12;8.27;;;6.18;;
64738;SDS011;51175;51.186;0.276;2023-07-22T00:10:42;9.85;;;6.38;;
64738;SDS011;51175;51.186;0.276;2023-07-22T00:11:13;9.18;;;5.60;;
64738;SDS011;51175;51.186;0.276;2023-07-22T00:11:43;8.00;;;5.93;;
64738;SDS011;51175;51.186;0.276;2023-07-22T00:12:14;9.90;;;6.35;;
64738;SDS011;51175;51.186;0.276;2023-07-22T00:12:44;9.90;;;6.05;;
64738;SDS011;51175;51.186;0.276;2023-07-22T00:13:15;7.82;;;5.32;;
64738;SDS011;51175;51.186;0.276;2023-07-22T00:13:46;9.80;;;6.57;;
64738;SDS011;51175;51.186;0.276;2023-07-22T00:14:16;8.95;;;6.60;;
64738;SDS011;51175;51.186;0.276;2023-07-22T00:14:46;12.23;;;6.90;;
64738;SDS011;51175;51.186;0.276;2023-07-22T00:15:17;8.63;;;5.55;;
64738;SDS011;51175;51.186;0.276;2023-07-22T00:15:47;7.72;;;5.35;;
64738;SDS011;51175;51.186;0.276;2023-07-22T00:16:17;10.73;;;6.38;;
64738;SDS011;51175;51.186;0.276;2023-07-22T00:16:48;9.75;;;5.75;;
64738;SDS011;51175;51.186;0.276;2023-07-22T00:17:18;8.05;;;5.68;;
64738;SDS011;51175;51.186;0.276;2023-07-22T00:17:49;7.20;;;5.35;;
64738;SDS011;51175;51.186;0.276;2023-07-22T00:18:20;8.80;;;5.50;;
64738;SDS011;51175;51.186;0.276;2023-07-22T00:18:51;7.93;;;5.70;;
64738;SDS011;51175;51.186;0.276;2023-07-22T00:19:21;8.25;;;5.75;;
64738;SDS011;51175;51.186;0.276;2023-07-22T00:19:53;7.85;;;5.00;;
64738;SDS011;51175;51.186;0.276;2023-07-22T00:20:23;11.13;;;5.88;;
64738;SDS011;51175;51.186;0.276;2023-07-22T00:20:55;8.00;;;6.13;;
64738;SDS011;51175;51.186;0.276;2023-07-22T00:21:26;8.85;;;5.28;;
64738;SDS011;51175;51.186;0.276;2023-07-22T00:21:56;8.55;;;5.15;;
64738;SDS011;51175;51.186;0.276;2023-07-22T00:22:26;8.02;;;5.75;;
64738;SDS011;51175;51.186;0.276;2023-07-22T00:22:57;8.45;;;4.93;;
64738;SDS011;51175;51.186;0.276;2023-07-22T00:23:27;8.57;;;5.40;;
64738;SDS011;51175;51.186;0.276;2023-07-22T00:23:58;6.35;;;4.45;;
64738;SDS011;51175;51.186;0.276;2023-07-22T00:24:29;7.80;;;4.93;;
64738;SDS011;51175;51.186;0.276;2023-07-22T00:24:59;7.82;;;5.32;;
64738;SDS011;51175;51.186;0.276;2023-07-22T00:25:33;9.00;;;5.28;;
64738;SDS011;51175;51.186;0.276;2023-07-22T00:26:03;9.00;;;5.03;;
64738;SDS011;51175;51.186;0.276;2023-07-22T00:26:34;8.38;;;5.78;;
64738;SDS011;51175;51.186;0.276;2023-07-22T00:27:04;8.93;;;5.45;;
64738;SDS011;51175;51.186;0.276;2023-07-22T00:27:36;7.75;;;4.80;;
64738;SDS011;51175;51.186;0.276;2023-07-22T00:28:07;7.40;;;4.40;;
64738;SDS011;51175;51.186;0.276;2023-07-22T00:28:38;7.13;;;5.03;;
64738;SDS011;51175;51.186;0.276;2023-07-22T00:29:09;7.15;;;5.07;;
64738;SDS011;51175;51.186;0.276;2023-07-22T00:29:39;7.97;;;5.40;;
64738;SDS011;51175;51.186;0.276;2023-07-22T00:30:09;8.00;;;5.13;;
64738;SDS011;51175;51.186;0.276;2023-07-22T00:30:41;7.13;;;4.53;;
64738;SDS011;51175;51.186;0.276;2023-07-22T00:31:11;7.60;;;5.00;;
64738;SDS011;51175;51.186;0.276;2023-07-22T00:31:42;10.00;;;5.03;;
64738;SDS011;51175;51.186;0.276;2023-07-22T00:32:13;9.27;;;6.05;;
64738;SDS011;51175;51.186;0.276;2023-07-22T00:32:43;7.95;;;5.00;;
64738;SDS011;51175;51.186;0.276;2023-07-22T00:33:14;6.80;;;4.80;;
64738;SDS011;51175;51.186;0.276;2023-07-22T00:33:45;9.55;;;5.78;;
64738;SDS011;51175;51.186;0.276;2023-07-22T00:34:15;7.47;;;4.75;;
64738;SDS011;51175;51.186;0.276;2023-07-22T00:34:46;7.50;;;5.32;;
64738;SDS011;51175;51.186;0.276;2023-07-22T00:35:16;8.18;;;4.97;;
64738;SDS011;51175;51.186;0.276;2023-07-22T00:35:47;9.00;;;4.80;;
64738;SDS011;51175;51.186;0.276;2023-07-22T00:36:20;8.10;;;4.93;;
64738;SDS011;51175;51.186;0.276;2023-07-22T00:36:50;7.40;;;4.28;;
64738;SDS011;51175;51.186;0.276;2023-07-22T00:37:21;6.80;;;4.65;;
64738;SDS011;51175;51.186;0.276;2023-07-22T00:37:51;10.13;;;4.57;;
64738;SDS011;51175;51.186;0.276;2023-07-22T00:38:21;6.40;;;4.28;;
64738;SDS011;51175;51.186;0.276;2023-07-22T00:38:52;7.10;;;5.03;;
64738;SDS011;51175;51.186;0.276;2023-07-22T00:39:22;6.00;;;3.88;;
64738;SDS011;51175;51.186;0.276;2023-07-22T00:39:53;5.88;;;4.10;;
64738;SDS011;51175;51.186;0.276;2023-07-22T00:40:24;5.78;;;3.92;;
64738;SDS011;51175;51.186;0.276;2023-07-22T00:40:54;6.97;;;4.32;;
64738;SDS011;51175;51.186;0.276;2023-07-22T00:41:25;9.38;;;4.75;;
64738;SDS011;51175;51.186;0.276;2023-07-22T00:41:55;7.97;;;4.55;;
64738;SDS011;51175;51.186;0.276;2023-07-22T00:42:26;6.05;;;4.10;;
64738;SDS011;51175;51.186;0.276;2023-07-22T00:42:56;10.43;;;6.00;;
64738;SDS011;51175;51.186;0.276;2023-07-22T00:43:26;8.05;;;4.93;;
64738;SDS011;51175;51.186;0.276;2023-07-22T00:43:57;6.88;;;4.28;;
64738;SDS011;51175;51.186;0.276;2023-07-22T00:44:27;7.15;;;4.10;;
64738;SDS011;51175;51.186;0.276;2023-07-22T00:44:58;6.93;;;4.03;;
64738;SDS011;51175;51.186;0.276;2023-07-22T00:45:28;6.45;;;4.05;;
64738;SDS011;51175;51.186;0.276;2023-07-22T00:45:58;8.80;;;4.90;;
64738;SDS011;51175;51.186;0.276;2023-07-22T00:46:29;6.03;;;4.13;;
64738;SDS011;51175;51.186;0.276;2023-07-22T00:46:59;5.68;;;3.78;;
64738;SDS011;51175;51.186;0.276;2023-07-22T00:47:32;5.35;;;4.10;;
64738;SDS011;51175;51.186;0.276;2023-07-22T00:48:03;6.45;;;4.18;;
64738;SDS011;51175;51.186;0.276;2023-07-22T00:48:35;7.03;;;4.10;;
64738;SDS011;51175;51.186;0.276;2023-07-22T00:49:07;7.07;;;4.75;;
64738;SDS011;51175;51.186;0.276;2023-07-22T00:49:38;5.75;;;4.15;;
64738;SDS011;51175;51.186;0.276;2023-07-22T00:50:08;7.40;;;5.07;;
64738;SDS011;51175;51.186;0.276;2023-07-22T00:50:39;6.38;;;4.10;;
64738;SDS011;51175;51.186;0.276;2023-07-22T00:51:09;6.00;;;3.75;;
64738;SDS011;51175;51.186;0.276;2023-07-22T00:51:40;6.40;;;3.53;;
64738;SDS011;51175;51.186;0.276;2023-07-22T00:52:10;7.47;;;3.90;;
64738;SDS011;51175;51.186;0.276;2023-07-22T00:52:40;5.25;;;3.72;;
64738;SDS011;51175;51.186;0.276;2023-07-22T00:53:12;5.32;;;3.70;;
64738;SDS011;51175;51.186;0.276;2023-07-22T00:53:42;5.20;;;3.92;;
64738;SDS011;51175;51.186;0.276;2023-07-22T00:54:13;4.82;;;3.65;;
64738;SDS011;51175;51.186;0.276;2023-07-22T00:54:43;5.32;;;4.20;;
64738;SDS011;51175;51.186;0.276;2023-07-22T00:55:14;9.27;;;4.18;;
64738;SDS011;51175;51.186;0.276;2023-07-22T00:55:45;6.45;;;4.80;;
64738;SDS011;51175;51.186;0.276;2023-07-22T00:56:15;5.55;;;3.13;;
64738;SDS011;51175;51.186;0.276;2023-07-22T00:56:46;7.05;;;4.40;;
64738;SDS011;51175;51.186;0.276;2023-07-22T00:57:17;7.63;;;4.00;;
64738;SDS011;51175;51.186;0.276;2023-07-22T00:57:48;4.70;;;3.40;;
64738;SDS011;51175;51.186;0.276;2023-07-22T00:58:20;6.80;;;4.03;;
64738;SDS011;51175;51.186;0.276;2023-07-22T00:58:50;5.53;;;3.78;;
64738;SDS011;51175;51.186;0.276;2023-07-22T00:59:21;5.40;;;3.42;;
64738;SDS011;51175;51.186;0.276;2023-07-22T00:59:52;5.35;;;3.35;;
64738;SDS011;51175;51.186;0.276;2023-07-22T01:00:22;7.03;;;4.57;;
64738;SDS011;51175;51.186;0.276;2023-07-22T01:00:53;5.35;;;3.80;;
64738;SDS011;51175;51.186;0.276;2023-07-22T01:01:23;6.50;;;4.40;;
64738;SDS011;51175;51.186;0.276;2023-07-22T01:01:53;6.25;;;3.60;;
64738;SDS011;51175;51.186;0.276;2023-07-22T01:02:24;4.68;;;3.40;;
64738;SDS011;51175;51.186;0.276;2023-07-22T01:02:54;6.05;;;3.97;;
64738;SDS011;51175;51.186;0.276;2023-07-22T01:03:25;4.85;;;3.33;;
64738;SDS011;51175;51.186;0.276;2023-07-22T01:03:55;5.88;;;3.80;;
64738;SDS011;51175;51.186;0.276;2023-07-22T01:04:26;4.50;;;3.17;;
64738;SDS011;51175;51.186;0.276;2023-07-22T01:04:56;6.90;;;3.17;;
64738;SDS011;51175;51.186;0.276;2023-07-22T01:05:27;7.35;;;4.75;;
64738;SDS011;51175;51.186;0.276;2023-07-22T01:05:57;5.00;;;3.42;;
64738;SDS011;51175;51.186;0.276;2023-07-22T01:06:30;5.32;;;3.40;;
64738;SDS011;51175;51.186;0.276;2023-07-22T01:07:01;5.25;;;3.05;;
64738;SDS011;51175;51.186;0.276;2023-07-22T01:07:36;5.68;;;3.78;;
64738;SDS011;51175;51.186;0.276;2023-07-22T01:08:08;6.40;;;3.67;;
64738;SDS011;51175;51.186;0.276;2023-07-22T01:08:39;7.25;;;3.97;;
64738;SDS011;51175;51.186;0.276;2023-07-22T01:09:09;5.80;;;3.25;;
64738;SDS011;51175;51.186;0.276;2023-07-22T01:09:42;9.48;;;4.22;;
64738;SDS011;51175;51.186;0.276;2023-07-22T01:10:13;5.85;;;3.88;;
64738;SDS011;51175;51.186;0.276;2023-07-22T01:10:44;5.05;;;3.03;;
64738;SDS011;51175;51.186;0.276;2023-07-22T01:11:15;4.82;;;2.92;;
64738;SDS011;51175;51.186;0.276;2023-07-22T01:11:45;4.30;;;3.08;;
64738;SDS011;51175;51.186;0.276;2023-07-22T01:12:16;6.28;;;3.85;;
64738;SDS011;51175;51.186;0.276;2023-07-22T01:12:46;6.30;;;4.05;;
64738;SDS011;51175;51.186;0.276;2023-07-22T01:13:16;4.57;;;3.15;;
64738;SDS011;51175;51.186;0.276;2023-07-22T01:13:47;6.13;;;4.10;;
64738;SDS011;51175;51.186;0.276;2023-07-22T01:14:17;7.97;;;3.53;;
64738;SDS011;51175;51.186;0.276;2023-07-22T01:14:47;5.07;;;3.30;;
64738;SDS011;51175;51.186;0.276;2023-07-22T01:15:18;5.38;;;3.00;;
64738;SDS011;51175;51.186;0.276;2023-07-22T01:15:48;6.20;;;3.38;;
64738;SDS011;51175;51.186;0.276;2023-07-22T01:16:19;5.30;;;3.17;;
64738;SDS011;51175;51.186;0.276;2023-07-22T01:16:49;5.55;;;3.45;;
64738;SDS011;51175;51.186;0.276;2023-07-22T01:17:20;4.47;;;2.97;;
64738;SDS011;51175;51.186;0.276;2023-07-22T01:17:51;6.00;;;4.68;;
64738;SDS011;51175;51.186;0.276;2023-07-22T01:18:21;6.15;;;3.72;;
64738;SDS011;51175;51.186;0.276;2023-07-22T01:18:52;4.78;;;2.80;;
64738;SDS011;51175;51.186;0.276;2023-07-22T01:19:24;6.85;;;3.08;;
64738;SDS011;51175;51.186;0.276;2023-07-22T01:19:54;4.97;;;3.10;;
64738;SDS011;51175;51.186;0.276;2023-07-22T01:20:26;5.07;;;3.35;;
64738;SDS011;51175;51.186;0.276;2023-07-22T01:20:56;5.07;;;2.90;;
64738;SDS011;51175;51.186;0.276;2023-07-22T01:21:27;6.13;;;3.47;;
64738;SDS011;51175;51.186;0.276;2023-07-22T01:22:03;3.70;;;2.95;;
64738;SDS011;51175;51.186;0.276;2023-07-22T01:22:40;6.93;;;3.60;;
64738;SDS011;51175;51.186;0.276;2023-07-22T01:23:13;4.90;;;3.00;;
64738;SDS011;51175;51.186;0.276;2023-07-22T01:23:43;5.32;;;3.08;;
64738;SDS011;51175;51.186;0.276;2023-07-22T01:24:13;5.18;;;3.15;;
64738;SDS011;51175;51.186;0.276;2023-07-22T01:24:45;4.82;;;3.30;;
64738;SDS011;51175;51.186;0.276;2023-07-22T01:25:16;5.05;;;3.35;;
64738;SDS011;51175;51.186;0.276;2023-07-22T01:25:46;4.65;;;3.25;;
64738;SDS011;51175;51.186;0.276;2023-07-22T01:26:17;5.63;;;3.22;;
64738;SDS011;51175;51.186;0.276;2023-07-22T01:26:47;4.57;;;2.97;;
64738;SDS011;51175;51.186;0.276;2023-07-22T01:27:18;5.53;;;3.08;;
64738;SDS011;51175;51.186;0.276;2023-07-22T01:27:52;4.53;;;3.15;;
64738;SDS011;51175;51.186;0.276;2023-07-22T01:28:23;4.93;;;3.33;;
64738;SDS011;51175;51.186;0.276;2023-07-22T01:29:01;3.75;;;2.97;;
64738;SDS011;51175;51.186;0.276;2023-07-22T01:29:32;4.30;;;3.05;;
64738;SDS011;51175;51.186;0.276;2023-07-22T01:30:03;7.03;;;3.20;;
64738;SDS011;51175;51.186;0.276;2023-07-22T01:30:34;5.13;;;3.05;;
64738;SDS011;51175;51.186;0.276;2023-07-22T01:31:04;5.30;;;2.88;;
64738;SDS011;51175;51.186;0.276;2023-07-22T01:31:35;5.80;;;3.25;;
64738;SDS011;51175;51.186;0.276;2023-07-22T01:32:06;4.03;;;3.15;;
64738;SDS011;51175;51.186;0.276;2023-07-22T01:32:36;4.18;;;2.92;;
64738;SDS011;51175;51.186;0.276;2023-07-22T01:33:06;6.78;;;3.05;;
64738;SDS011;51175;51.186;0.276;2023-07-22T01:33:37;7.35;;;3.53;;
64738;SDS011;51175;51.186;0.276;2023-07-22T01:34:07;5.28;;;3.25;;
64738;SDS011;51175;51.186;0.276;2023-07-22T01:34:38;4.90;;;3.00;;
64738;SDS011;51175;51.186;0.276;2023-07-22T01:35:09;4.22;;;2.92;;
64738;SDS011;51175;51.186;0.276;2023-07-22T01:35:40;4.97;;;2.92;;
64738;SDS011;51175;51.186;0.276;2023-07-22T01:36:11;5.45;;;2.97;;
64738;SDS011;51175;51.186;0.276;2023-07-22T01:36:41;4.50;;;2.83;;
64738;SDS011;51175;51.186;0.276;2023-07-22T01:37:13;4.05;;;2.78;;
64738;SDS011;51175;51.186;0.276;2023-07-22T01:37:43;6.22;;;3.10;;
64738;SDS011;51175;51.186;0.276;2023-07-22T01:38:13;4.78;;;2.90;;
64738;SDS011;51175;51.186;0.276;2023-07-22T01:38:44;6.65;;;3.13;;
64738;SDS011;51175;51.186;0.276;2023-07-22T01:39:14;4.82;;;3.28;;
64738;SDS011;51175;51.186;0.276;2023-07-22T01:39:45;3.95;;;2.88;;
64738;SDS011;51175;51.186;0.276;2023-07-22T01:40:16;4.25;;;2.90;;
64738;SDS011;51175;51.186;0.276;2023-07-22T01:40:47;4.72;;;3.08;;
64738;SDS011;51175;51.186;0.276;2023-07-22T01:41:18;4.50;;;2.92;;
64738;SDS011;51175;51.186;0.276;2023-07-22T01:41:48;5.32;;;3.17;;
64738;SDS011;51175;51.186;0.276;2023-07-22T01:42:18;4.25;;;2.92;;
64738;SDS011;51175;51.186;0.276;2023-07-22T01:42:49;5.97;;;2.67;;
64738;SDS011;51175;51.186;0.276;2023-07-22T01:43:19;4.38;;;2.83;;
64738;SDS011;51175;51.186;0.276;2023-07-22T01:43:49;4.45;;;2.85;;
64738;SDS011;51175;51.186;0.276;2023-07-22T01:44:20;4.68;;;2.80;;
64738;SDS011;51175;51.186;0.276;2023-07-22T01:44:50;6.03;;;3.13;;
64738;SDS011;51175;51.186;0.276;2023-07-22T01:45:21;5.97;;;3.15;;
64738;SDS011;51175;51.186;0.276;2023-07-22T01:45:52;4.43;;;2.95;;
64738;SDS011;51175;51.186;0.276;2023-07-22T01:46:23;5.35;;;3.08;;
64738;SDS011;51175;51.186;0.276;2023-07-22T01:46:53;4.22;;;2.88;;
64738;SDS011;51175;51.186;0.276;2023-07-22T01:47:24;3.53;;;2.60;;
64738;SDS011;51175;51.186;0.276;2023-07-22T01:47:54;5.20;;;2.60;;
64738;SDS011;51175;51.186;0.276;2023-07-22T01:48:25;4.53;;;2.72;;
64738;SDS011;51175;51.186;0.276;2023-07-22T01:48:55;6.47;;;2.75;;
64738;SDS011;51175;51.186;0.276;2023-07-22T01:49:26;5.68;;;2.70;;
64738;SDS011;51175;51.186;0.276;2023-07-22T01:49:56;5.57;;;2.65;;
64738;SDS011;51175;51.186;0.276;2023-07-22T01:50:27;4.97;;;2.58;;
64738;SDS011;51175;51.186;0.276;2023-07-22T01:50:57;3.65;;;2.55;;
64738;SDS011;51175;51.186;0.276;2023-07-22T01:51:28;4.85;;;2.95;;
64738;SDS011;51175;51.186;0.276;2023-07-22T01:51:58;4.38;;;2.70;;
64738;SDS011;51175;51.186;0.276;2023-07-22T01:52:28;5.07;;;2.80;;
64738;SDS011;51175;51.186;0.276;2023-07-22T01:52:59;4.95;;;2.65;;
64738;SDS011;51175;51.186;0.276;2023-07-22T01:53:29;5.25;;;3.30;;
64738;SDS011;51175;51.186;0.276;2023-07-22T01:54:00;5.15;;;3.10;;
64738;SDS011;51175;51.186;0.276;2023-07-22T01:54:31;4.55;;;2.58;;
64738;SDS011;51175;51.186;0.276;2023-07-22T01:55:01;4.07;;;2.78;;
64738;SDS011;51175;51.186;0.276;2023-07-22T01:55:35;3.45;;;2.50;;
64738;SDS011;51175;51.186;0.276;2023-07-22T01:56:05;3.40;;;2.20;;
64738;SDS011;51175;51.186;0.276;2023-07-22T01:56:36;5.30;;;2.55;;
64738;SDS011;51175;51.186;0.276;2023-07-22T01:57:07;3.95;;;2.28;;
64738;SDS011;51175;51.186;0.276;2023-07-22T01:57:37;3.92;;;2.70;;
64738;SDS011;51175;51.186;0.276;2023-07-22T01:58:09;5.43;;;2.42;;
64738;SDS011;51175;51.186;0.276;2023-07-22T01:58:40;7.85;;;3.67;;
64738;SDS011;51175;51.186;0.276;2023-07-22T01:59:10;5.30;;;3.03;;
64738;SDS011;51175;51.186;0.276;2023-07-22T01:59:40;10.25;;;3.17;;
64738;SDS011;51175;51.186;0.276;2023-07-22T02:00:11;4.93;;;2.60;;
64738;SDS011;51175;51.186;0.276;2023-07-22T02:00:42;3.60;;;2.30;;
64738;SDS011;51175;51.186;0.276;2023-07-22T02:01:12;4.20;;;2.40;;
64738;SDS011;51175;51.186;0.276;2023-07-22T02:01:46;5.63;;;3.08;;
64738;SDS011;51175;51.186;0.276;2023-07-22T02:02:18;4.90;;;2.60;;
64738;SDS011;51175;51.186;0.276;2023-07-22T02:02:50;4.22;;;2.60;;
64738;SDS011;51175;51.186;0.276;2023-07-22T02:03:20;6.20;;;2.60;;
64738;SDS011;51175;51.186;0.276;2023-07-22T02:03:50;3.75;;;2.50;;
64738;SDS011;51175;51.186;0.276;2023-07-22T02:04:21;4.78;;;2.60;;
64738;SDS011;51175;51.186;0.276;2023-07-22T02:04:51;5.13;;;2.97;;
64738;SDS011;51175;51.186;0.276;2023-07-22T02:05:21;3.60;;;2.22;;
64738;SDS011;51175;51.186;0.276;2023-07-22T02:05:52;3.97;;;2.40;;
64738;SDS011;51175;51.186;0.276;2023-07-22T02:06:22;4.43;;;2.60;;
64738;SDS011;51175;51.186;0.276;2023-07-22T02:06:53;4.13;;;2.60;;
64738;SDS011;51175;51.186;0.276;2023-07-22T02:07:23;3.25;;;2.63;;
64738;SDS011;51175;51.186;0.276;2023-07-22T02:07:56;4.68;;;2.40;;
64738;SDS011;51175;51.186;0.276;2023-07-22T02:08:26;4.32;;;2.53;;
64738;SDS011;51175;51.186;0.276;2023-07-22T02:08:56;3.20;;;2.13;;
64738;SDS011;51175;51.186;0.276;2023-07-22T02:09:27;5.03;;;2.25;;
64738;SDS011;51175;51.186;0.276;2023-07-22T02:09:57;3.83;;;2.17;;
64738;SDS011;51175;51.186;0.276;2023-07-22T02:10:28;5.20;;;2.28;;
64738;SDS011;51175;51.186;0.276;2023-07-22T02:11:05;3.80;;;2.30;;
64738;SDS011;51175;51.186;0.276;2023-07-22T02:11:37;4.80;;;2.45;;
64738;SDS011;51175;51.186;0.276;2023-07-22T02:12:07;4.15;;;2.75;;
64738;SDS011;51175;51.186;0.276;2023-07-22T02:12:38;5.13;;;3.08;;
64738;SDS011;51175;51.186;0.276;2023-07-22T02:13:09;2.63;;;2.15;;
64738;SDS011;51175;51.186;0.276;2023-07-22T02:13:39;3.67;;;2.47;;
64738;SDS011;51175;51.186;0.276;2023-07-22T02:14:09;3.95;;;2.40;;
64738;SDS011;51175;51.186;0.276;2023-07-22T02:14:40;5.07;;;3.20;;
64738;SDS011;51175;51.186;0.276;2023-07-22T02:15:10;4.78;;;2.80;;
64738;SDS011;51175;51.186;0.276;2023-07-22T02:15:40;3.80;;;2.22;;
64738;SDS011;51175;51.186;0.276;2023-07-22T02:16:12;5.30;;;2.55;;
64738;SDS011;51175;51.186;0.276;2023-07-22T02:16:42;4.22;;;2.17;;
64738;SDS011;51175;51.186;0.276;2023-07-22T02:17:12;4.40;;;2.67;;
64738;SDS011;51175;51.186;0.276;2023-07-22T02:17:43;4.55;;;2.28;;
64738;SDS011;51175;51.186;0.276;2023-07-22T02:18:13;4.07;;;2.45;;
64738;SDS011;51175;51.186;0.276;2023-07-22T02:18:43;5.10;;;2.20;;
64738;SDS011;51175;51.186;0.276;2023-07-22T02:19:14;3.55;;;2.03;;
64738;SDS011;51175;51.186;0.276;2023-07-22T02:19:45;4.50;;;2.00;;
64738;SDS011;51175;51.186;0.276;2023-07-22T02:20:16;3.15;;;2.25;;
64738;SDS011;51175;51.186;0.276;2023-07-22T02:20:47;4.28;;;2.40;;
64738;SDS011;51175;51.186;0.276;2023-07-22T02:21:18;3.83;;;2.20;;
64738;SDS011;51175;51.186;0.276;2023-07-22T02:21:48;3.58;;;2.15;;
64738;SDS011;51175;51.186;0.276;2023-07-22T02:22:18;3.35;;;2.00;;
64738;SDS011;51175;51.186;0.276;2023-07-22T02:22:48;4.25;;;2.70;;
64738;SDS011;51175;51.186;0.276;2023-07-22T02:23:19;4.25;;;2.22;;
64738;SDS011;51175;51.186;0.276;2023-07-22T02:23:50;3.95;;;2.35;;
64738;SDS011;51175;51.186;0.276;2023-07-22T02:24:20;3.40;;;2.10;;
64738;SDS011;51175;51.186;0.276;2023-07-22T02:24:51;4.10;;;2.05;;
64738;SDS011;51175;51.186;0.276;2023-07-22T02:25:21;4.38;;;2.70;;
64738;SDS011;51175;51.186;0.276;2023-07-22T02:25:53;4.70;;;2.33;;
64738;SDS011;51175;51.186;0.276;2023-07-22T02:26:24;4.45;;;2.15;;
64738;SDS011;51175;51.186;0.276;2023-07-22T02:26:54;4.38;;;2.25;;
64738;SDS011;51175;51.186;0.276;2023-07-22T02:27:25;5.07;;;2.83;;
64738;SDS011;51175;51.186;0.276;2023-07-22T02:27:55;3.83;;;2.10;;
64738;SDS011;51175;51.186;0.276;2023-07-22T02:28:25;3.97;;;2.20;;
64738;SDS011;51175;51.186;0.276;2023-07-22T02:28:56;4.07;;;2.05;;
64738;SDS011;51175;51.186;0.276;2023-07-22T02:29:26;4.35;;;2.35;;
64738;SDS011;51175;51.186;0.276;2023-07-22T02:29:57;4.35;;;2.25;;
64738;SDS011;51175;51.186;0.276;2023-07-22T02:30:27;3.15;;;1.85;;
64738;SDS011;51175;51.186;0.276;2023-07-22T02:31:00;3.47;;;1.90;;
64738;SDS011;51175;51.186;0.276;2023-07-22T02:31:32;3.90;;;2.13;;
64738;SDS011;51175;51.186;0.276;2023-07-22T02:32:03;4.70;;;2.50;;
64738;SDS011;51175;51.186;0.276;2023-07-22T02:32:34;3.75;;;1.98;;
64738;SDS011;51175;51.186;0.276;2023-07-22T02:33:05;3.42;;;2.00;;
64738;SDS011;51175;51.186;0.276;2023-07-22T02:33:35;5.63;;;2.35;;
64738;SDS011;51175;51.186;0.276;2023-07-22T02:34:06;4.32;;;2.28;;
64738;SDS011;51175;51.186;0.276;2023-07-22T02:34:36;3.13;;;2.00;;
64738;SDS011;51175;51.186;0.276;2023-07-22T02:35:07;5.63;;;2.60;;
64738;SDS011;51175;51.186;0.276;2023-07-22T02:35:38;2.90;;;1.70;;
64738;SDS011;51175;51.186;0.276;2023-07-22T02:36:08;3.83;;;2.30;;
64738;SDS011;51175;51.186;0.276;2023-07-22T02:36:39;3.25;;;1.80;;
64738;SDS011;51175;51.186;0.276;2023-07-22T02:37:09;4.93;;;1.73;;
64738;SDS011;51175;51.186;0.276;2023-07-22T02:37:39;4.80;;;1.95;;
64738;SDS011;51175;51.186;0.276;2023-07-22T02:38:10;6.95;;;2.20;;
64738;SDS011;51175;51.186;0.276;2023-07-22T02:38:40;2.10;;;1.48;;
64738;SDS011;51175;51.186;0.276;2023-07-22T02:39:11;3.40;;;2.15;;
64738;SDS011;51175;51.186;0.276;2023-07-22T02:39:41;3.90;;;1.55;;
64738;SDS011;51175;51.186;0.276;2023-07-22T02:40:11;3.97;;;2.38;;
64738;SDS011;51175;51.186;0.276;2023-07-22T02:40:42;4.05;;;2.70;;
64738;SDS011;51175;51.186;0.276;2023-07-22T02:41:12;4.05;;;2.15;;
64738;SDS011;51175;51.186;0.276;2023-07-22T02:41:43;3.08;;;1.52;;
64738;SDS011;51175;51.186;0.276;2023-07-22T02:42:13;2.83;;;1.95;;
64738;SDS011;51175;51.186;0.276;2023-07-22T02:42:43;2.60;;;1.90;;
64738;SDS011;51175;51.186;0.276;2023-07-22T02:43:14;3.63;;;2.25;;
64738;SDS011;51175;51.186;0.276;2023-07-22T02:43:45;2.97;;;1.73;;
64738;SDS011;51175;51.186;0.276;2023-07-22T02:44:16;3.78;;;1.67;;
64738;SDS011;51175;51.186;0.276;2023-07-22T02:44:46;2.85;;;1.98;;
64738;SDS011;51175;51.186;0.276;2023-07-22T02:45:16;3.42;;;2.20;;
64738;SDS011;51175;51.186;0.276;2023-07-22T02:45:47;4.68;;;2.08;;
64738;SDS011;51175;51.186;0.276;2023-07-22T02:46:17;3.30;;;1.85;;
64738;SDS011;51175;51.186;0.276;2023-07-22T02:46:48;4.20;;;1.80;;
64738;SDS011;51175;51.186;0.276;2023-07-22T02:47:18;3.50;;;1.90;;
64738;SDS011;51175;51.186;0.276;2023-07-22T02:47:48;4.72;;;2.05;;
64738;SDS011;51175;51.186;0.276;2023-07-22T02:48:19;3.08;;;1.85;;
64738;SDS011;51175;51.186;0.276;2023-07-22T02:48:49;1.92;;;1.42;;
64738;SDS011;51175;51.186;0.276;2023-07-22T02:49:20;3.83;;;2.20;;
64738;SDS011;51175;51.186;0.276;2023-07-22T02:49:50;4.15;;;2.03;;
64738;SDS011;51175;51.186;0.276;2023-07-22T02:50:20;3.38;;;2.22;;
64738;SDS011;51175;51.186;0.276;2023-07-22T02:50:51;3.25;;;1.88;;
64738;SDS011;51175;51.186;0.276;2023-07-22T02:51:21;3.63;;;1.88;;
64738;SDS011;51175;51.186;0.276;2023-07-22T02:51:52;5.32;;;2.15;;
64738;SDS011;51175;51.186;0.276;2023-07-22T02:52:22;3.08;;;2.03;;
64738;SDS011;51175;51.186;0.276;2023-07-22T02:52:52;3.38;;;2.03;;
64738;SDS011;51175;51.186;0.276;2023-07-22T02:53:23;2.58;;;1.40;;
64738;SDS011;51175;51.186;0.276;2023-07-22T02:53:53;2.80;;;2.13;;
64738;SDS011;51175;51.186;0.276;2023-07-22T02:54:23;2.75;;;1.67;;
64738;SDS011;51175;51.186;0.276;2023-07-22T02:55:07;3.35;;;1.90;;
64738;SDS011;51175;51.186;0.276;2023-07-22T02:55:41;4.80;;;2.53;;
64738;SDS011;51175;51.186;0.276;2023-07-22T02:56:12;3.55;;;2.10;;
64738;SDS011;51175;51.186;0.276;2023-07-22T02:56:43;3.00;;;1.80;;
64738;SDS011;51175;51.186;0.276;2023-07-22T02:57:13;3.10;;;1.80;;
64738;SDS011;51175;51.186;0.276;2023-07-22T02:57:43;3.22;;;2.03;;
64738;SDS011;51175;51.186;0.276;2023-07-22T02:58:16;4.10;;;2.03;;
64738;SDS011;51175;51.186;0.276;2023-07-22T02:58:46;2.92;;;1.80;;
64738;SDS011;51175;51.186;0.276;2023-07-22T02:59:18;3.63;;;2.30;;
64738;SDS011;51175;51.186;0.276;2023-07-22T02:59:48;4.82;;;1.92;;
64738;SDS011;51175;51.186;0.276;2023-07-22T03:00:18;3.20;;;2.00;;
64738;SDS011;51175;51.186;0.276;2023-07-22T03:00:53;3.20;;;1.70;;
64738;SDS011;51175;51.186;0.276;2023-07-22T03:01:23;2.95;;;1.70;;
64738;SDS011;51175;51.186;0.276;2023-07-22T03:01:54;3.05;;;1.67;;
64738;SDS011;51175;51.186;0.276;2023-07-22T03:02:24;3.22;;;1.80;;
64738;SDS011;51175;51.186;0.276;2023-07-22T03:02:55;2.30;;;1.30;;
64738;SDS011;51175;51.186;0.276;2023-07-22T03:03:32;2.67;;;1.83;;
64738;SDS011;51175;51.186;0.276;2023-07-22T03:04:03;2.45;;;1.52;;
64738;SDS011;51175;51.186;0.276;2023-07-22T03:04:34;4.60;;;1.60;;
64738;SDS011;51175;51.186;0.276;2023-07-22T03:05:05;3.22;;;1.77;;
64738;SDS011;51175;51.186;0.276;2023-07-22T03:05:37;2.70;;;1.60;;
64738;SDS011;51175;51.186;0.276;2023-07-22T03:06:08;3.33;;;1.67;;